PILOTS ONLINE: 478    ATC ONLINE: 60

KAVX - Catalina Airport

Location

IATA CIB
City Avalon
Country  United States
Latitude 33° 24' 17" N
Longitude 118° 24' 57" W
Elevation 1602 ft
Type Small Airport

Runways

04/22 3000 ft / 60 ft

Weather

METAR
2014/07/24 14:51
KAVX 241451Z AUTO 00000KT 10SM CLR 26/11 A2992 RMK AO2 SLP105 T02610106 51006
TAF
No TAF available

Outbound flights

Inbound flights